Time;durP1;ratioP1;P1;durP2;ratioP2;P2;SDS_P1;SDS_P2;PMS_P1;PMS_P2;Temp;Humidity;BMP_temperature;BMP_pressure;BME280_temperature;BME280_humidity;BME280_pressure;Samples;Min_cycle;Max_cycle;Signal;HPM_P1;HPM_P2
2023/04/01 00:01:34;;;;;;;4.22;2.25;;;11.30;99.90;;;;;;5030850;28;20059;-76
2023/04/01 00:04:01;;;;;;;4.53;2.08;;;11.30;99.90;;;;;;5030707;28;20156;-76
2023/04/01 00:06:27;;;;;;;2.88;1.33;;;11.30;99.90;;;;;;5030762;28;20123;-76
2023/04/01 00:08:53;;;;;;;4.40;2.10;;;11.30;99.90;;;;;;5039673;28;20095;-76
2023/04/01 00:11:19;;;;;;;5.25;1.90;;;11.30;99.90;;;;;;5050688;28;20021;-76
2023/04/01 00:13:45;;;;;;;4.20;2.03;;;11.20;99.90;;;;;;5049334;28;20052;-76
2023/04/01 00:16:11;;;;;;;3.80;1.70;;;11.30;99.90;;;;;;5049292;28;20021;-76
2023/04/01 00:18:38;;;;;;;4.93;1.60;;;11.30;99.90;;;;;;5046183;28;20033;-76
2023/04/01 00:21:03;;;;;;;4.93;2.40;;;11.20;99.90;;;;;;5049533;28;20505;-76
2023/04/01 00:23:29;;;;;;;4.78;2.03;;;11.30;99.90;;;;;;5049447;28;20022;-76
2023/04/01 00:25:54;;;;;;;3.20;1.88;;;11.30;99.90;;;;;;5048327;28;20071;-76
2023/04/01 00:28:20;;;;;;;12.38;3.20;;;11.30;99.90;;;;;;5049336;28;20021;-76
2023/04/01 00:30:48;;;;;;;4.55;3.17;;;11.20;99.90;;;;;;5049757;28;20021;-77
2023/04/01 00:33:14;;;;;;;7.60;3.33;;;11.30;99.90;;;;;;5049754;28;20539;-76
2023/04/01 00:35:41;;;;;;;5.10;2.78;;;11.30;99.90;;;;;;5050293;28;20485;-76
2023/04/01 00:38:07;;;;;;;5.47;3.63;;;11.30;99.90;;;;;;5049575;28;20016;-76
2023/04/01 00:40:38;;;;;;;5.18;3.90;;;11.30;99.90;;;;;;5050119;28;20024;-76
2023/04/01 00:43:12;;;;;;;9.85;4.90;;;11.30;99.90;;;;;;5049057;28;20707;-76
2023/04/01 00:45:41;;;;;;;8.60;4.88;;;11.30;99.90;;;;;;5050026;28;20104;-76
2023/04/01 00:48:12;;;;;;;6.00;5.40;;;11.30;99.90;;;;;;5029799;28;20038;-76
2023/04/01 00:50:42;;;;;;;7.85;4.97;;;11.30;99.90;;;;;;5030670;28;20456;-76
2023/04/01 00:53:08;;;;;;;6.43;5.53;;;11.30;99.90;;;;;;5030347;28;20030;-76
2023/04/01 00:55:37;;;;;;;9.30;5.93;;;11.30;99.90;;;;;;5030589;28;20018;-76
2023/04/01 00:58:08;;;;;;;8.48;6.88;;;11.30;99.90;;;;;;5016691;28;20017;-76
2023/04/01 01:00:35;;;;;;;9.05;7.85;;;11.30;99.90;;;;;;5030183;28;20502;-76
2023/04/01 01:03:02;;;;;;;12.55;9.30;;;11.30;99.90;;;;;;5029984;28;20045;-76
2023/04/01 01:05:56;;;;;;;12.18;8.27;;;11.30;99.90;;;;;;5029860;28;20390;-76
2023/04/01 01:08:46;;;;;;;;;;;11.30;99.90;;;;;;5031242;28;20080;-76
2023/04/01 01:11:14;;;;;;;12.05;9.88;;;11.30;99.90;;;;;;5022967;28;19909;-76
2023/04/01 01:14:07;;;;;;;13.48;9.35;;;11.30;99.90;;;;;;5030509;28;20065;-76
2023/04/01 01:16:42;;;;;;;13.15;10.55;;;11.30;99.90;;;;;;5031107;28;20045;-76
2023/04/01 01:19:29;;;;;;;17.27;12.18;;;11.30;99.90;;;;;;5038203;28;20043;-76
2023/04/01 01:22:01;;;;;;;14.45;10.32;;;11.30;99.90;;;;;;5046114;28;20044;-76
2023/04/01 01:24:42;;;;;;;15.30;12.60;;;11.30;99.90;;;;;;5047669;28;20022;-76
2023/04/01 01:27:11;;;;;;;13.68;11.88;;;11.30;99.90;;;;;;5028696;28;20040;-76
2023/04/01 01:29:55;;;;;;;14.63;11.73;;;11.30;99.90;;;;;;5043528;28;20029;-76
2023/04/01 01:32:39;;;;;;;18.05;12.38;;;11.30;99.90;;;;;;5046273;28;20040;-76
2023/04/01 01:35:34;;;;;;;17.38;13.20;;;11.30;99.90;;;;;;5040708;28;20489;-77
2023/04/01 01:38:09;;;;;;;19.05;13.45;;;11.20;99.90;;;;;;5054810;28;20094;-77
2023/04/01 01:40:39;;;;;;;18.58;14.07;;;11.20;99.90;;;;;;5055857;28;20028;-77
2023/04/01 01:43:08;;;;;;;19.15;12.73;;;11.20;99.90;;;;;;5054522;28;20029;-77
2023/04/01 01:45:36;;;;;;;12.57;11.20;;;11.20;99.90;;;;;;5055901;28;20029;-76
2023/04/01 01:48:04;;;;;;;20.30;14.50;;;11.20;99.90;;;;;;5055051;28;20019;-77
2023/04/01 01:50:31;;;;;;;15.18;12.18;;;11.20;99.90;;;;;;5055120;28;20477;-77
2023/04/01 01:53:04;;;;;;;13.32;11.30;;;11.20;99.90;;;;;;5055121;28;20029;-76
2023/04/01 01:55:39;;;;;;;13.15;10.15;;;11.10;99.90;;;;;;5054525;28;20086;-76
2023/04/01 01:58:19;;;;;;;13.85;9.30;;;11.20;99.90;;;;;;5030102;28;20037;-76
2023/04/01 02:00:51;;;;;;;15.38;9.48;;;11.10;99.90;;;;;;5042835;28;20036;-76
2023/04/01 02:03:20;;;;;;;13.27;8.93;;;11.10;99.90;;;;;;5055329;28;20049;-76
2023/04/01 02:05:47;;;;;;;16.73;9.52;;;11.10;99.90;;;;;;5055934;28;20017;-76
2023/04/01 02:08:18;;;;;;;12.30;7.90;;;11.10;99.90;;;;;;5056064;28;20045;-76
2023/04/01 02:10:52;;;;;;;17.85;8.90;;;11.10;99.90;;;;;;5054948;28;20053;-76
2023/04/01 02:13:50;;;;;;;18.42;8.27;;;11.20;99.90;;;;;;5043841;28;20030;-77
2023/04/01 02:16:20;;;;;;;13.27;7.28;;;11.10;99.90;;;;;;5040354;28;20028;-76
2023/04/01 02:18:50;;;;;;;14.25;7.50;;;11.00;99.90;;;;;;5048432;28;20021;-76
2023/04/01 02:21:18;;;;;;;19.23;7.90;;;11.00;99.90;;;;;;5049193;28;20443;-77
2023/04/01 02:23:45;;;;;;;16.20;7.07;;;11.10;99.90;;;;;;5050222;28;20112;-77
2023/04/01 02:26:12;;;;;;;18.58;7.95;;;11.00;99.90;;;;;;5048520;28;20029;-76
2023/04/01 02:28:40;;;;;;;12.23;6.43;;;11.00;99.90;;;;;;5046068;28;20021;-75
2023/04/01 02:31:08;;;;;;;12.32;6.55;;;11.00;99.90;;;;;;5046688;28;20025;-76
2023/04/01 02:33:34;;;;;;;17.33;5.93;;;10.90;99.90;;;;;;5033714;28;20025;-77
2023/04/01 02:35:59;;;;;;;17.27;7.60;;;11.00;99.90;;;;;;5032054;28;20029;-77
2023/04/01 02:38:25;;;;;;;14.82;7.13;;;11.00;99.90;;;;;;5051598;28;20204;-77
2023/04/01 02:40:58;;;;;;;17.30;7.55;;;11.00;99.90;;;;;;5051662;28;20539;-76
2023/04/01 02:43:23;;;;;;;13.10;7.72;;;11.00;99.90;;;;;;5033135;28;20017;-77
2023/04/01 02:45:49;;;;;;;14.57;7.40;;;10.90;99.90;;;;;;5032516;28;20504;-76
2023/04/01 02:48:14;;;;;;;15.00;7.72;;;10.90;99.90;;;;;;5032629;28;20024;-77
2023/04/01 02:50:40;;;;;;;12.60;7.43;;;10.90;99.90;;;;;;5032849;28;20036;-76
2023/04/01 02:53:06;;;;;;;11.73;7.47;;;10.90;99.90;;;;;;5032569;28;20053;-76
2023/04/01 02:55:32;;;;;;;11.52;7.25;;;10.90;99.90;;;;;;5032359;28;20064;-76
2023/04/01 02:57:58;;;;;;;9.25;5.43;;;10.90;99.90;;;;;;5032264;28;20120;-76
2023/04/01 03:00:25;;;;;;;6.80;5.65;;;10.90;99.90;;;;;;5032577;28;20463;-77
2023/04/01 03:02:50;;;;;;;7.15;5.28;;;10.90;99.90;;;;;;5031763;28;20037;-77
2023/04/01 03:05:16;;;;;;;6.78;5.18;;;10.90;99.90;;;;;;5032303;28;20096;-77
2023/04/01 03:07:41;;;;;;;7.15;5.30;;;10.90;99.90;;;;;;5032157;28;20084;-77
2023/04/01 03:10:07;;;;;;;9.07;4.88;;;10.80;99.90;;;;;;5044564;28;20573;-76
2023/04/01 03:12:33;;;;;;;8.98;5.88;;;10.80;99.90;;;;;;5046877;28;20079;-77
2023/04/01 03:14:59;;;;;;;8.23;5.78;;;10.80;99.90;;;;;;5050717;28;20849;-77
2023/04/01 03:17:24;;;;;;;9.13;5.82;;;10.80;99.90;;;;;;5050952;28;20532;-77
2023/04/01 03:19:50;;;;;;;6.80;5.60;;;10.80;99.90;;;;;;5050392;28;20097;-76
2023/04/01 03:22:16;;;;;;;10.85;6.43;;;10.80;99.90;;;;;;5050512;28;20074;-77
2023/04/01 03:24:41;;;;;;;8.35;6.28;;;10.80;99.90;;;;;;5050296;28;20025;-76
2023/04/01 03:27:07;;;;;;;8.32;6.18;;;10.80;99.90;;;;;;5049788;28;20032;-77
2023/04/01 03:29:32;;;;;;;8.55;6.25;;;10.80;99.90;;;;;;5043645;28;20048;-77
2023/04/01 03:31:58;;;;;;;8.80;5.82;;;10.70;99.90;;;;;;5044692;28;20102;-77
2023/04/01 03:34:25;;;;;;;9.93;7.13;;;10.70;99.90;;;;;;5032316;28;20021;-76
2023/04/01 03:36:52;;;;;;;7.82;5.97;;;10.70;99.90;;;;;;5031520;28;20048;-77
2023/04/01 03:39:20;;;;;;;7.55;5.28;;;10.70;99.90;;;;;;5031310;28;20029;-76
2023/04/01 03:41:46;;;;;;;9.68;6.38;;;10.70;99.90;;;;;;5038056;28;20017;-77
2023/04/01 03:44:12;;;;;;;7.28;5.15;;;10.70;99.90;;;;;;5050971;28;20024;-77
2023/04/01 03:46:38;;;;;;;9.38;6.25;;;10.70;99.90;;;;;;5051242;28;20584;-77
2023/04/01 03:49:11;;;;;;;8.60;6.63;;;10.70;99.90;;;;;;5050690;28;20088;-76
2023/04/01 03:51:40;;;;;;;7.22;5.43;;;10.70;99.90;;;;;;5019504;28;20017;-77
2023/04/01 03:54:06;;;;;;;10.10;5.90;;;10.70;99.90;;;;;;5032102;28;20029;-77
2023/04/01 03:56:32;;;;;;;7.85;6.15;;;10.70;99.90;;;;;;5049815;28;20381;-77
2023/04/01 03:58:58;;;;;;;9.80;6.80;;;10.70;99.90;;;;;;5049125;28;20115;-79
2023/04/01 04:01:24;;;;;;;11.95;7.97;;;10.70;99.90;;;;;;5050735;28;20163;-77
2023/04/01 04:03:50;;;;;;;10.20;6.57;;;10.70;99.90;;;;;;5049888;28;20422;-77
2023/04/01 04:06:18;;;;;;;9.95;7.43;;;10.70;99.90;;;;;;5050815;28;20032;-77
2023/04/01 04:08:44;;;;;;;8.77;7.35;;;10.60;99.90;;;;;;5050266;28;20025;-77
2023/04/01 04:11:10;;;;;;;11.35;7.97;;;10.60;99.90;;;;;;5050306;28;20029;-77
2023/04/01 04:13:35;;;;;;;10.43;7.90;;;10.60;99.90;;;;;;5050566;28;20545;-77
2023/04/01 04:16:02;;;;;;;10.68;8.48;;;10.60;99.90;;;;;;5042534;28;20497;-77
2023/04/01 04:18:28;;;;;;;12.07;8.45;;;10.60;99.90;;;;;;5044234;28;20386;-76
2023/04/01 04:20:54;;;;;;;13.68;9.35;;;10.60;99.90;;;;;;5030452;28;20017;-76
2023/04/01 04:23:20;;;;;;;10.10;8.38;;;10.60;99.90;;;;;;5031747;28;20100;-76
2023/04/01 04:26:06;;;;;;;14.13;11.00;;;10.60;99.90;;;;;;5031342;28;20025;-77
2023/04/01 04:28:32;;;;;;;13.57;8.85;;;10.60;99.90;;;;;;5031422;28;20018;-77
2023/04/01 04:30:58;;;;;;;13.13;10.63;;;10.60;99.90;;;;;;5041162;28;20040;-77
2023/04/01 04:33:24;;;;;;;13.57;11.25;;;10.60;99.90;;;;;;5032881;28;20025;-77
2023/04/01 04:35:51;;;;;;;13.63;10.65;;;10.60;99.90;;;;;;5040851;28;20094;-77
2023/04/01 04:38:16;;;;;;;15.68;11.55;;;10.60;99.90;;;;;;5035610;28;20036;-77
2023/04/01 04:40:43;;;;;;;14.63;11.82;;;10.50;99.90;;;;;;5039095;28;20022;-77
2023/04/01 04:43:13;;;;;;;15.63;11.57;;;10.50;99.90;;;;;;5030510;28;20059;-77
2023/04/01 04:45:39;;;;;;;15.77;12.23;;;10.50;99.90;;;;;;5030762;28;20025;-77
2023/04/01 04:48:06;;;;;;;16.67;11.48;;;10.50;99.90;;;;;;5030820;28;20026;-77
2023/04/01 04:50:31;;;;;;;16.83;11.32;;;10.50;99.90;;;;;;5030212;28;20391;-78
2023/04/01 04:52:57;;;;;;;16.65;12.32;;;10.50;99.90;;;;;;5030367;28;20463;-77
2023/04/01 04:55:22;;;;;;;17.50;13.05;;;10.50;99.90;;;;;;5030935;28;20021;-77
2023/04/01 04:57:48;;;;;;;17.30;11.93;;;10.50;99.90;;;;;;5030960;28;20018;-77
2023/04/01 05:00:14;;;;;;;13.57;11.00;;;10.50;99.90;;;;;;5030728;28;20544;-77
2023/04/01 05:02:39;;;;;;;13.98;11.38;;;10.50;99.90;;;;;;5031087;28;20048;-77
2023/04/01 05:05:05;;;;;;;21.55;13.25;;;10.60;99.90;;;;;;5028586;28;20026;-77
2023/04/01 05:07:31;;;;;;;16.23;11.18;;;10.50;99.90;;;;;;5031340;28;20022;-77
2023/04/01 05:09:56;;;;;;;17.60;13.35;;;10.50;99.90;;;;;;5030710;28;20033;-77
2023/04/01 05:12:22;;;;;;;16.42;13.40;;;10.50;99.90;;;;;;5029721;28;20037;-77
2023/04/01 05:14:47;;;;;;;17.98;13.23;;;10.50;99.90;;;;;;5030779;28;20033;-77
2023/04/01 05:17:13;;;;;;;17.13;12.88;;;10.50;99.90;;;;;;5031129;28;20482;-77
2023/04/01 05:19:39;;;;;;;17.45;12.93;;;10.50;99.90;;;;;;5030532;28;20040;-77
2023/04/01 05:22:05;;;;;;;21.15;14.13;;;10.50;99.90;;;;;;5031076;28;20080;-77
2023/04/01 05:24:31;;;;;;;16.55;12.07;;;10.50;99.90;;;;;;5031107;28;20071;-76
2023/04/01 05:26:58;;;;;;;24.95;14.25;;;10.60;99.90;;;;;;5029618;28;20029;-76
2023/04/01 05:29:25;;;;;;;18.67;12.30;;;10.60;99.90;;;;;;5030790;28;20025;-76
2023/04/01 05:31:50;;;;;;;18.20;12.40;;;10.60;99.90;;;;;;5037866;28;20049;-76
2023/04/01 05:34:16;;;;;;;15.35;11.82;;;10.60;99.90;;;;;;5040685;28;20493;-77
2023/04/01 05:36:43;;;;;;;21.58;13.75;;;10.60;99.90;;;;;;5049086;28;20017;-77
2023/04/01 05:39:08;;;;;;;17.90;13.10;;;10.60;99.90;;;;;;5049249;28;20783;-77
2023/04/01 05:41:38;;;;;;;18.08;11.52;;;10.60;99.90;;;;;;5049156;28;20024;-76
2023/04/01 05:44:04;;;;;;;20.98;13.43;;;10.60;99.90;;;;;;5047732;28;20036;-77
2023/04/01 05:46:30;;;;;;;20.95;12.60;;;10.60;99.90;;;;;;5048732;28;20106;-76
2023/04/01 05:48:56;;;;;;;17.48;11.85;;;10.60;99.90;;;;;;5048649;28;20029;-77
2023/04/01 05:51:22;;;;;;;17.17;10.38;;;10.60;99.90;;;;;;5048652;28;20025;-78
2023/04/01 05:53:47;;;;;;;19.92;10.95;;;10.60;99.90;;;;;;5049303;28;20497;-76
2023/04/01 05:56:13;;;;;;;17.63;10.40;;;10.70;99.90;;;;;;5048497;28;20024;-76
2023/04/01 05:58:39;;;;;;;16.75;10.52;;;10.70;99.90;;;;;;5049037;28;20013;-76
2023/04/01 06:01:09;;;;;;;14.70;8.93;;;10.80;99.90;;;;;;5045749;28;20439;-76
2023/04/01 06:03:35;;;;;;;10.13;7.43;;;10.80;99.90;;;;;;5050457;28;20029;-76
2023/04/01 06:06:01;;;;;;;16.80;9.15;;;10.80;99.90;;;;;;5050764;28;20051;-76
2023/04/01 06:08:27;;;;;;;12.57;8.70;;;10.80;99.90;;;;;;5052808;28;20379;-76
2023/04/01 06:11:10;;;;;;;10.18;7.70;;;10.90;99.90;;;;;;5051962;28;20654;-76
2023/04/01 06:14:06;;;;;;;12.63;8.80;;;10.90;99.90;;;;;;5052227;28;20028;-76
2023/04/01 06:16:44;;;;;;;9.18;7.03;;;10.90;99.90;;;;;;5044642;28;20496;-77
2023/04/01 06:19:20;;;;;;;8.35;5.90;;;11.00;99.90;;;;;;5027253;28;20097;-77
2023/04/01 06:22:24;;;;;;;8.10;5.88;;;11.00;99.90;;;;;;5051705;28;20033;-77
2023/04/01 06:25:15;;;;;;;9.82;6.45;;;11.10;99.90;;;;;;5038588;28;20191;-77
2023/04/01 06:27:49;;;;;;;10.32;6.03;;;11.10;99.90;;;;;;5042937;28;20107;-76
2023/04/01 06:30:40;;;;;;;8.23;5.38;;;11.10;99.90;;;;;;5051241;28;20036;-76
2023/04/01 06:33:09;;;;;;;9.60;6.63;;;11.10;99.90;;;;;;5051318;28;20539;-76
2023/04/01 06:35:59;;;;;;;11.93;6.63;;;11.10;99.90;;;;;;5052459;28;20025;-77
2023/04/01 06:38:48;;;;;;;14.55;7.82;;;11.20;99.90;;;;;;5052073;28;20020;-76
2023/04/01 06:41:36;;;;;;;15.25;6.88;;;11.20;99.90;;;;;;5050341;28;20108;-76
2023/04/01 06:44:15;;;;;;;12.30;6.45;;;11.20;99.90;;;;;;5031274;28;20029;-77
2023/04/01 06:46:41;;;;;;;11.07;6.05;;;11.20;99.90;;;;;;5039586;28;20044;-76
2023/04/01 06:49:36;;;;;;;8.88;5.32;;;11.20;99.90;;;;;;5038571;28;20033;-77
2023/04/01 06:52:10;;;;;;;7.50;4.28;;;11.20;99.90;;;;;;5051892;28;20061;-77
2023/04/01 06:54:46;;;;;;;6.68;4.43;;;11.20;99.90;;;;;;5047154;28;20759;-77
2023/04/01 06:57:30;;;;;;;5.43;3.72;;;11.20;99.90;;;;;;5043502;28;20032;-77
2023/04/01 06:59:58;;;;;;;7.57;4.10;;;11.30;99.90;;;;;;5047881;28;20028;-77
2023/04/01 07:02:38;;;;;;;5.68;3.53;;;11.30;99.90;;;;;;5041486;28;20391;-77
2023/04/01 07:05:07;;;;;;;5.80;3.95;;;11.30;99.90;;;;;;5033724;28;20124;-74
2023/04/01 07:07:41;;;;;;;6.25;3.53;;;11.30;99.90;;;;;;5032752;28;20029;-74
2023/04/01 07:10:17;;;;;;;4.32;2.53;;;11.40;99.90;;;;;;5037237;28;20068;-72
2023/04/01 07:12:54;;;;;;;4.32;2.40;;;11.40;99.90;;;;;;5032312;28;20099;-73
2023/04/01 07:15:28;;;;;;;5.07;2.65;;;11.40;99.90;;;;;;5031371;28;20071;-73
2023/04/01 07:17:58;;;;;;;4.57;2.88;;;11.40;99.90;;;;;;5048090;28;20032;-73
2023/04/01 07:20:31;;;;;;;6.43;2.95;;;11.30;99.90;;;;;;5051494;28;20021;-73
2023/04/01 07:23:01;;;;;;;6.00;2.58;;;11.30;99.90;;;;;;5048854;28;20029;-73
2023/04/01 07:25:59;;;;;;;4.00;2.55;;;11.30;99.90;;;;;;5051781;28;20033;-73
2023/04/01 07:28:30;;;;;;;6.78;3.05;;;11.40;99.90;;;;;;5024612;28;20036;-73
2023/04/01 07:31:16;;;;;;;5.68;3.58;;;11.40;99.90;;;;;;5050455;28;20108;-73
2023/04/01 07:33:56;;;;;;;5.40;2.85;;;11.40;99.90;;;;;;5034632;28;20021;-73
2023/04/01 07:36:31;;;;;;;4.05;2.53;;;11.40;99.90;;;;;;5045486;28;20017;-73
2023/04/01 07:39:05;;;;;;;5.32;3.08;;;11.40;99.90;;;;;;5048124;28;20456;-73
2023/04/01 07:42:04;;;;;;;4.85;3.05;;;11.40;99.90;;;;;;5042269;28;20082;-74
2023/04/01 07:44:45;;;;;;;4.35;2.47;;;11.40;99.90;;;;;;5044624;28;20057;-74
2023/04/01 07:47:35;;;;;;;3.88;2.13;;;11.40;99.90;;;;;;5047637;28;20572;-73
2023/04/01 07:50:19;;;;;;;3.92;2.47;;;11.40;99.90;;;;;;5038692;28;20021;-74
2023/04/01 07:52:50;;;;;;;3.75;2.38;;;11.40;99.90;;;;;;5045247;28;20029;-73
2023/04/01 07:55:27;;;;;;;4.28;2.22;;;11.40;99.90;;;;;;5048138;28;20024;-73
2023/04/01 07:58:25;;;;;;;5.38;2.05;;;11.40;99.90;;;;;;5047241;28;20079;-73
2023/04/01 08:01:10;;;;;;;4.78;2.17;;;11.50;99.90;;;;;;5042192;28;20067;-75
2023/04/01 08:03:45;;;;;;;3.47;2.05;;;11.50;99.90;;;;;;5041007;28;20044;-75
2023/04/01 08:06:44;;;;;;;3.55;1.90;;;11.60;99.90;;;;;;5025669;28;20558;-74
2023/04/01 08:09:42;;;;;;;3.08;1.80;;;11.60;99.90;;;;;;5037015;28;20104;-74
2023/04/01 08:12:31;;;;;;;3.35;1.50;;;11.60;99.90;;;;;;5040625;28;20570;-74
2023/04/01 08:15:00;;;;;;;2.00;1.10;;;11.70;99.90;;;;;;5023395;28;20117;-74
2023/04/01 08:17:39;;;;;;;1.88;1.20;;;11.70;99.90;;;;;;5033572;28;20020;-74
2023/04/01 08:20:36;;;;;;;2.22;0.95;;;11.80;99.90;;;;;;5047496;28;20053;-74
2023/04/01 08:23:17;;;;;;;1.98;1.35;;;11.80;99.90;;;;;;5042005;28;20444;-74
2023/04/01 08:25:55;;;;;;;2.72;1.00;;;11.90;99.90;;;;;;5033354;28;20148;-74
2023/04/01 08:28:35;;;;;;;0.95;0.80;;;11.90;99.90;;;;;;5039171;28;20501;-74
2023/04/01 08:31:22;;;;;;;2.72;1.30;;;11.90;99.90;;;;;;5042913;28;20033;-74
2023/04/01 08:33:52;;;;;;;1.80;1.00;;;11.80;99.90;;;;;;5030402;28;20103;-74
2023/04/01 08:36:28;;;;;;;2.38;0.93;;;11.80;99.90;;;;;;5032078;28;20101;-74
2023/04/01 08:39:12;;;;;;;1.48;1.00;;;11.80;99.90;;;;;;5042396;28;20347;-74
2023/04/01 08:42:15;;;;;;;2.67;1.65;;;11.80;99.90;;;;;;5031731;28;20013;-74
2023/04/01 08:45:18;;;;;;;2.25;1.30;;;11.90;99.90;;;;;;5045899;28;20047;-74
2023/04/01 08:48:21;;;;;;;5.28;1.65;;;11.90;99.90;;;;;;5048420;28;20032;-74
2023/04/01 08:51:08;;;;;;;3.20;1.80;;;12.00;99.90;;;;;;5041893;28;20041;-74
2023/04/01 08:53:54;;;;;;;2.47;2.03;;;12.00;99.90;;;;;;5044071;28;20052;-74
2023/04/01 08:56:40;;;;;;;2.85;2.03;;;12.00;99.90;;;;;;5034918;28;20770;-75
2023/04/01 08:59:29;;;;;;;2.45;1.83;;;12.10;99.90;;;;;;5034894;28;20036;-77
2023/04/01 09:02:30;;;;;;;3.85;2.13;;;12.10;99.90;;;;;;5037150;28;20490;-75
2023/04/01 09:05:40;;;;;;;3.38;2.03;;;12.10;99.90;;;;;;5030806;28;20069;-75
2023/04/01 09:08:26;;;;;;;2.75;1.92;;;12.20;99.90;;;;;;5028887;28;20036;-75
2023/04/01 09:11:14;;;;;;;4.07;1.83;;;12.20;99.90;;;;;;5048005;28;20075;-74
2023/04/01 09:14:25;;;;;;;3.30;1.92;;;12.30;99.90;;;;;;5042332;28;20033;-75
2023/04/01 09:16:57;;;;;;;2.13;1.42;;;12.30;99.90;;;;;;5027857;28;20128;-75
2023/04/01 09:19:56;;;;;;;2.30;1.67;;;12.30;99.90;;;;;;5032068;28;20421;-75
2023/04/01 09:22:37;;;;;;;1.95;1.60;;;12.30;99.90;;;;;;5022948;28;20386;-75
2023/04/01 09:25:49;;;;;;;2.63;2.13;;;12.20;99.90;;;;;;5031046;28;20024;-75
2023/04/01 09:28:27;;;;;;;3.90;2.50;;;12.20;99.90;;;;;;4963949;28;20039;-75
2023/04/01 09:31:29;;;;;;;3.60;2.28;;;12.10;99.90;;;;;;4979589;28;20085;-75
2023/04/01 09:34:22;;;;;;;6.18;3.53;;;12.10;99.90;;;;;;4969755;28;20031;-75
2023/04/01 09:37:09;;;;;;;5.70;4.13;;;12.00;99.90;;;;;;4987914;28;20034;-75
2023/04/01 09:39:37;;;;;;;4.65;3.88;;;12.00;99.90;;;;;;4970717;28;20047;-74
2023/04/01 09:42:23;;;;;;;5.65;4.22;;;12.00;99.90;;;;;;4980436;28;20190;-75
2023/04/01 09:45:03;;;;;;;6.50;4.55;;;12.10;99.90;;;;;;4986869;28;20117;-74
2023/04/01 09:48:00;;;;;;;6.93;5.07;;;12.10;99.90;;;;;;4987493;28;20475;-75
2023/04/01 09:50:36;;;;;;;7.20;5.25;;;12.20;99.90;;;;;;4973160;28;20037;-75
2023/04/01 09:53:23;;;;;;;7.05;5.10;;;12.10;99.90;;;;;;4965898;28;20034;-74
2023/04/01 09:56:30;;;;;;;7.18;4.15;;;12.20;99.90;;;;;;4978550;28;20081;-75
2023/04/01 09:59:32;;;;;;;8.05;4.78;;;12.10;99.90;;;;;;4916168;29;20032;-75
2023/04/01 10:02:13;;;;;;;7.05;4.70;;;12.10;99.90;;;;;;4935457;28;20054;-75
2023/04/01 10:04:50;;;;;;;6.43;4.78;;;12.00;99.90;;;;;;4971238;28;20093;-75
2023/04/01 10:07:33;;;;;;;5.65;4.53;;;12.00;99.90;;;;;;4976064;28;20034;-75
2023/04/01 10:10:05;;;;;;;7.97;5.80;;;12.00;99.90;;;;;;4973028;28;20042;-74
2023/04/01 10:12:39;;;;;;;7.03;5.80;;;12.10;99.90;;;;;;4976233;28;20594;-74
2023/04/01 10:15:29;;;;;;;8.00;6.38;;;12.10;99.90;;;;;;4983515;28;20045;-75
2023/04/01 10:18:32;;;;;;;8.05;5.63;;;12.20;99.90;;;;;;4974406;28;20034;-74
2023/04/01 10:21:19;;;;;;;9.93;7.10;;;12.30;99.90;;;;;;4969237;28;20046;-75
2023/04/01 10:24:27;;;;;;;9.25;7.53;;;12.30;99.90;;;;;;4987880;28;20492;-75
2023/04/01 10:26:53;;;;;;;8.75;7.05;;;12.30;99.90;;;;;;4937683;28;20062;-75
2023/04/01 10:29:40;;;;;;;9.60;8.13;;;12.30;99.90;;;;;;4992477;28;20447;-75
2023/04/01 10:32:11;;;;;;;10.13;7.53;;;12.30;99.90;;;;;;5039330;28;20452;-75
2023/04/01 10:35:02;;;;;;;10.00;8.98;;;12.30;99.90;;;;;;5038462;28;20032;-74
2023/04/01 10:37:46;;;;;;;9.68;8.13;;;12.40;99.90;;;;;;5040156;28;20040;-74
2023/04/01 10:40:27;;;;;;;9.32;7.63;;;12.40;99.90;;;;;;5026114;28;20021;-75
2023/04/01 10:43:23;;;;;;;12.63;8.82;;;12.50;99.90;;;;;;5050640;28;20029;-74
2023/04/01 10:46:15;;;;;;;11.55;8.32;;;12.60;99.90;;;;;;5052251;28;20100;-74
2023/04/01 10:49:02;;;;;;;8.45;7.18;;;12.60;99.90;;;;;;5041608;28;20060;-74
2023/04/01 10:51:34;;;;;;;9.73;7.68;;;12.80;99.90;;;;;;5033601;28;20014;-75
2023/04/01 10:54:15;;;;;;;11.00;8.55;;;12.90;99.90;;;;;;5032504;28;20108;-74
2023/04/01 10:56:56;;;;;;;8.65;7.35;;;13.00;99.90;;;;;;5022537;28;20441;-74
2023/04/01 10:59:56;;;;;;;8.85;6.72;;;13.10;99.90;;;;;;5032597;28;20025;-74
2023/04/01 11:02:46;;;;;;;8.77;5.93;;;13.20;99.90;;;;;;5045176;28;20518;-75
2023/04/01 11:05:39;;;;;;;8.68;7.70;;;13.30;99.90;;;;;;5045620;28;20078;-75
2023/04/01 11:08:41;;;;;;;7.65;6.63;;;13.30;99.90;;;;;;5041172;28;20703;-73
2023/04/01 11:11:21;;;;;;;8.30;6.60;;;13.20;99.90;;;;;;5028975;28;20021;-75
2023/04/01 11:14:25;;;;;;;9.10;7.10;;;13.20;99.90;;;;;;5048835;28;20052;-75
2023/04/01 11:17:03;;;;;;;7.88;6.78;;;13.10;99.90;;;;;;5037494;28;20510;-74
2023/04/01 11:20:06;;;;;;;7.53;6.65;;;13.10;99.90;;;;;;5042045;28;20048;-74
2023/04/01 11:22:56;;;;;;;9.82;7.88;;;13.30;99.90;;;;;;5032070;28;20032;-75
2023/04/01 11:25:59;;;;;;;9.63;8.02;;;13.40;99.90;;;;;;5038935;28;20057;-74
2023/04/01 11:28:36;;;;;;;7.22;6.53;;;13.40;99.90;;;;;;5038800;28;20018;-75
2023/04/01 11:31:01;;;;;;;6.72;4.80;;;13.40;99.90;;;;;;5045678;28;20354;-74
2023/04/01 11:33:55;;;;;;;5.65;4.22;;;13.30;99.90;;;;;;5033805;28;20496;-74
2023/04/01 11:36:26;;;;;;;4.55;3.83;;;13.30;99.90;;;;;;5031328;28;20148;-74
2023/04/01 11:39:14;;;;;;;3.90;3.33;;;13.40;99.90;;;;;;5031754;28;20022;-74
2023/04/01 11:42:11;;;;;;;4.10;3.47;;;13.50;99.90;;;;;;5037192;28;20024;-74
2023/04/01 11:44:51;;;;;;;3.90;2.88;;;13.60;99.90;;;;;;5047874;28;20091;-74
2023/04/01 11:47:32;;;;;;;2.83;2.22;;;13.70;99.90;;;;;;5041591;28;20098;-74
2023/04/01 11:50:13;;;;;;;2.55;2.00;;;13.70;99.90;;;;;;5038287;28;20028;-74
2023/04/01 11:53:06;;;;;;;2.20;1.67;;;13.70;99.90;;;;;;5044601;28;20083;-74
2023/04/01 11:55:46;;;;;;;1.73;1.60;;;13.60;99.90;;;;;;5044523;28;20109;-74
2023/04/01 11:58:46;;;;;;;2.10;1.35;;;13.60;99.90;;;;;;5039367;28;20025;-74
2023/04/01 12:01:53;;;;;;;1.00;0.90;;;13.50;99.90;;;;;;5036894;28;20112;-74
2023/04/01 12:04:37;;;;;;;1.52;1.10;;;13.50;99.90;;;;;;5044465;28;20086;-74
2023/04/01 12:07:19;;;;;;;2.15;0.98;;;13.40;99.90;;;;;;5044884;28;20017;-74
2023/04/01 12:09:56;;;;;;;1.42;0.98;;;13.40;99.90;;;;;;5040851;28;20125;-74
2023/04/01 12:12:42;;;;;;;1.55;1.13;;;13.40;99.90;;;;;;5038971;28;20021;-74
2023/04/01 12:15:49;;;;;;;1.25;0.95;;;13.30;99.90;;;;;;5041140;28;20032;-75
2023/04/01 12:18:29;;;;;;;1.65;1.20;;;13.20;99.90;;;;;;5043873;28;20024;-74
2023/04/01 12:20:59;;;;;;;3.03;1.40;;;13.10;99.90;;;;;;5039617;28;20021;-75
2023/04/01 12:23:57;;;;;;;2.03;1.20;;;13.10;99.90;;;;;;5037879;28;20497;-75
2023/04/01 12:26:59;;;;;;;1.92;1.20;;;13.00;99.90;;;;;;5044547;28;20024;-74
2023/04/01 12:29:49;;;;;;;3.92;1.50;;;12.90;99.90;;;;;;5048295;28;20087;-74
2023/04/01 12:32:35;;;;;;;2.10;1.52;;;12.90;99.90;;;;;;5050288;28;20024;-74
2023/04/01 12:35:06;;;;;;;2.95;1.65;;;12.80;99.90;;;;;;5046484;28;20029;-74
2023/04/01 12:37:47;;;;;;;3.03;2.20;;;12.80;99.90;;;;;;5023246;28;20427;-74
2023/04/01 12:40:37;;;;;;;2.15;1.60;;;12.70;99.90;;;;;;5035308;28;20034;-75
2023/04/01 12:43:15;;;;;;;4.78;2.50;;;12.70;99.90;;;;;;5032741;28;20063;-74
2023/04/01 12:46:13;;;;;;;2.67;2.05;;;12.60;99.90;;;;;;5030280;28;20021;-75
2023/04/01 12:49:17;;;;;;;4.43;2.67;;;12.60;99.90;;;;;;5038338;28;20025;-75
2023/04/01 12:51:57;;;;;;;3.47;2.85;;;12.50;99.90;;;;;;5045053;28;20041;-75
2023/04/01 12:54:35;;;;;;;2.95;2.22;;;12.50;99.90;;;;;;5044419;28;20031;-75
2023/04/01 12:57:40;;;;;;;3.15;2.70;;;12.50;99.90;;;;;;5046122;28;20045;-75
2023/04/01 13:00:21;;;;;;;;;;;12.50;99.90;;;;;;5020815;28;20367;-75
2023/04/01 13:03:14;;;;;;;4.68;3.03;;;12.50;99.90;;;;;;5034029;28;19932;-75
2023/04/01 13:06:17;;;;;;;5.32;3.10;;;12.50;99.90;;;;;;5033741;28;20025;-74
2023/04/01 13:09:03;;;;;;;3.65;3.15;;;12.60;99.90;;;;;;5032290;28;20504;-74
2023/04/01 13:12:10;;;;;;;3.97;3.58;;;12.60;99.90;;;;;;5024192;28;20022;-74
2023/04/01 13:15:05;;;;;;;4.10;3.00;;;12.70;99.90;;;;;;5015868;28;20051;-74
2023/04/01 13:17:58;;;;;;;4.43;3.65;;;12.60;99.90;;;;;;5038960;28;20021;-75
2023/04/01 13:20:48;;;;;;;4.97;3.63;;;12.70;99.90;;;;;;5037629;28;20081;-75
2023/04/01 13:23:38;;;;;;;4.38;3.10;;;12.70;99.90;;;;;;5041678;28;20057;-75
2023/04/01 13:26:09;;;;;;;4.13;3.50;;;12.70;99.90;;;;;;5027007;28;20032;-74
2023/04/01 13:28:46;;;;;;;4.03;3.45;;;12.70;99.90;;;;;;5041886;28;20029;-74
2023/04/01 13:31:34;;;;;;;5.97;4.18;;;12.80;99.90;;;;;;5048271;28;20025;-74
2023/04/01 13:34:26;;;;;;;5.43;4.22;;;12.80;99.90;;;;;;5017492;28;20414;-74
2023/04/01 13:37:04;;;;;;;4.82;3.92;;;12.90;99.90;;;;;;5029104;28;20034;-74